Time;durP1;ratioP1;P1;durP2;ratioP2;P2;SDS_P1;SDS_P2;PMS_P1;PMS_P2;Temp;Humidity;BMP_temperature;BMP_pressure;BME280_temperature;BME280_humidity;BME280_pressure;Samples;Min_cycle;Max_cycle;Signal;HPM_P1;HPM_P2
2023/09/26 00:01:34;;;;;;;8.65;3.95;;;;;;;;;;5074281;28;20058;-67
2023/09/26 00:04:00;;;;;;;7.10;3.55;;;;;;;;;;5075689;28;20039;-68
2023/09/26 00:06:27;;;;;;;6.97;4.38;;;;;;;;;;5073551;28;20035;-67
2023/09/26 00:08:54;;;;;;;7.00;3.53;;;;;;;;;;5074154;28;20699;-67
2023/09/26 00:11:20;;;;;;;8.27;4.07;;;;;;;;;;5073955;28;20047;-67
2023/09/26 00:13:48;;;;;;;9.07;4.07;;;;;;;;;;5074392;28;20059;-67
2023/09/26 00:16:14;;;;;;;8.27;4.20;;;;;;;;;;5073777;28;20717;-68
2023/09/26 00:18:42;;;;;;;8.93;4.28;;;;;;;;;;5074143;28;20028;-67
2023/09/26 00:21:10;;;;;;;7.32;4.20;;;;;;;;;;5073693;28;20034;-67
2023/09/26 00:23:36;;;;;;;7.35;4.00;;;;;;;;;;5073923;28;20047;-67
2023/09/26 00:26:03;;;;;;;6.57;3.88;;;;;;;;;;5074087;28;20065;-67
2023/09/26 00:28:30;;;;;;;7.38;4.40;;;;;;;;;;5074379;28;20043;-67
2023/09/26 00:30:56;;;;;;;6.25;4.10;;;;;;;;;;5074736;28;20066;-67
2023/09/26 00:33:23;;;;;;;7.18;3.72;;;;;;;;;;5073024;28;20085;-68
2023/09/26 00:35:49;;;;;;;5.93;3.65;;;;;;;;;;5073442;28;20024;-67
2023/09/26 00:38:15;;;;;;;7.78;4.45;;;;;;;;;;5073387;28;20039;-67
2023/09/26 00:40:42;;;;;;;6.53;3.97;;;;;;;;;;5073603;28;20046;-67
2023/09/26 00:43:09;;;;;;;7.38;4.38;;;;;;;;;;5073123;28;20027;-68
2023/09/26 00:45:35;;;;;;;8.13;4.05;;;;;;;;;;5072767;28;20908;-67
2023/09/26 00:48:05;;;;;;;8.02;4.30;;;;;;;;;;5074014;28;20083;-67
2023/09/26 00:50:31;;;;;;;5.82;3.38;;;;;;;;;;5072590;28;20044;-67
2023/09/26 00:52:57;;;;;;;8.18;4.65;;;;;;;;;;5073021;28;20035;-67
2023/09/26 00:55:24;;;;;;;6.68;4.22;;;;;;;;;;5073189;28;20024;-67
2023/09/26 00:57:51;;;;;;;9.85;5.70;;;;;;;;;;5074760;28;20099;-67
2023/09/26 01:00:21;;;;;;;10.85;5.10;;;;;;;;;;5073875;28;20024;-67
2023/09/26 01:02:48;;;;;;;8.88;4.75;;;;;;;;;;5070601;28;20092;-67
2023/09/26 01:05:14;;;;;;;9.60;5.40;;;;;;;;;;5073020;28;20123;-67
2023/09/26 01:07:40;;;;;;;10.95;5.57;;;;;;;;;;5072835;28;20032;-68
2023/09/26 01:10:12;;;;;;;7.70;5.72;;;;;;;;;;5072366;28;20035;-67
2023/09/26 01:12:39;;;;;;;10.00;5.57;;;;;;;;;;5069401;28;20130;-67
2023/09/26 01:15:05;;;;;;;8.45;5.10;;;;;;;;;;5071989;28;20097;-68
2023/09/26 01:17:32;;;;;;;8.90;4.80;;;;;;;;;;5074663;28;20428;-67
2023/09/26 01:19:59;;;;;;;9.10;4.47;;;;;;;;;;5073847;28;20123;-67
2023/09/26 01:22:27;;;;;;;9.27;4.88;;;;;;;;;;5072544;28;20028;-67
2023/09/26 01:24:53;;;;;;;8.13;4.65;;;;;;;;;;5073617;28;21864;-67
2023/09/26 01:27:19;;;;;;;9.57;4.72;;;;;;;;;;5073570;28;20626;-67
2023/09/26 01:29:48;;;;;;;7.72;4.65;;;;;;;;;;5074978;28;20035;-67
2023/09/26 01:32:15;;;;;;;6.97;4.53;;;;;;;;;;5077291;28;20648;-67
2023/09/26 01:34:41;;;;;;;7.75;4.80;;;;;;;;;;5076834;27;20112;-67
2023/09/26 01:37:07;;;;;;;8.85;4.53;;;;;;;;;;5076807;28;20067;-67
2023/09/26 01:39:33;;;;;;;9.27;4.85;;;;;;;;;;5077545;28;20024;-67
2023/09/26 01:41:59;;;;;;;8.05;4.80;;;;;;;;;;5077241;28;20036;-67
2023/09/26 01:44:25;;;;;;;7.20;4.55;;;;;;;;;;5077668;28;20036;-67
2023/09/26 01:46:52;;;;;;;8.15;4.43;;;;;;;;;;5076710;28;20783;-67
2023/09/26 01:49:18;;;;;;;7.45;4.68;;;;;;;;;;5076550;27;20032;-67
2023/09/26 01:51:44;;;;;;;11.90;4.80;;;;;;;;;;5076471;28;20167;-67
2023/09/26 01:54:10;;;;;;;8.75;5.05;;;;;;;;;;5077050;28;20569;-67
2023/09/26 01:56:36;;;;;;;7.75;4.28;;;;;;;;;;5077528;28;20123;-67
2023/09/26 01:59:02;;;;;;;8.75;5.10;;;;;;;;;;5076741;27;20032;-67
2023/09/26 02:01:28;;;;;;;7.85;4.75;;;;;;;;;;5076774;28;20100;-68
2023/09/26 02:03:54;;;;;;;8.43;4.60;;;;;;;;;;5077302;28;20062;-67
2023/09/26 02:06:21;;;;;;;6.63;4.47;;;;;;;;;;5077090;27;20040;-67
2023/09/26 02:08:47;;;;;;;9.43;5.18;;;;;;;;;;5076723;28;20712;-68
2023/09/26 02:11:13;;;;;;;8.07;4.53;;;;;;;;;;5075858;28;20506;-67
2023/09/26 02:13:39;;;;;;;6.78;4.10;;;;;;;;;;5073257;27;22110;-67
2023/09/26 02:16:10;;;;;;;6.63;3.80;;;;;;;;;;5075881;28;21816;-67
2023/09/26 02:18:36;;;;;;;7.25;5.22;;;;;;;;;;5074413;28;20076;-68
2023/09/26 02:21:02;;;;;;;7.32;4.45;;;;;;;;;;5074634;28;20043;-67
2023/09/26 02:23:28;;;;;;;8.15;4.47;;;;;;;;;;5075184;28;20115;-68
2023/09/26 02:25:54;;;;;;;8.15;4.82;;;;;;;;;;5073922;28;20052;-67
2023/09/26 02:28:20;;;;;;;6.80;4.72;;;;;;;;;;5073759;28;20033;-67
2023/09/26 02:30:47;;;;;;;7.97;4.32;;;;;;;;;;5057056;28;20035;-67
2023/09/26 02:33:13;;;;;;;8.68;4.80;;;;;;;;;;5075678;28;20044;-67
2023/09/26 02:35:39;;;;;;;8.30;4.53;;;;;;;;;;5076586;27;20035;-67
2023/09/26 02:38:05;;;;;;;7.00;4.20;;;;;;;;;;5075798;28;20032;-67
2023/09/26 02:40:31;;;;;;;7.10;4.03;;;;;;;;;;5075314;27;20672;-68
2023/09/26 02:42:57;;;;;;;8.23;4.70;;;;;;;;;;5075757;28;20032;-67
2023/09/26 02:45:23;;;;;;;7.40;4.15;;;;;;;;;;5076510;28;20031;-68
2023/09/26 02:47:49;;;;;;;7.03;4.57;;;;;;;;;;5077098;28;20032;-68
2023/09/26 02:50:15;;;;;;;12.35;4.28;;;;;;;;;;5075186;28;20040;-67
2023/09/26 02:52:42;;;;;;;6.38;4.28;;;;;;;;;;5076680;27;20032;-68
2023/09/26 02:55:09;;;;;;;7.45;4.03;;;;;;;;;;5074623;28;20039;-68
2023/09/26 02:57:35;;;;;;;6.38;3.92;;;;;;;;;;5075151;28;20037;-67
2023/09/26 03:00:14;;;;;;;9.23;4.75;;;;;;;;;;5074712;28;20133;-67
2023/09/26 03:02:41;;;;;;;6.93;4.50;;;;;;;;;;5076373;28;20730;-67
2023/09/26 03:05:09;;;;;;;9.45;4.68;;;;;;;;;;5075473;28;20769;-67
2023/09/26 03:07:35;;;;;;;7.40;4.75;;;;;;;;;;5074810;28;20555;-67
2023/09/26 03:10:01;;;;;;;9.00;4.65;;;;;;;;;;5072868;28;20654;-67
2023/09/26 03:12:27;;;;;;;7.85;4.05;;;;;;;;;;5072026;28;20031;-67
2023/09/26 03:14:55;;;;;;;8.85;4.45;;;;;;;;;;5074330;28;20032;-67
2023/09/26 03:17:21;;;;;;;7.82;4.40;;;;;;;;;;5073939;28;20861;-67
2023/09/26 03:19:47;;;;;;;7.40;4.25;;;;;;;;;;5074084;28;20035;-67
2023/09/26 03:22:13;;;;;;;9.45;4.70;;;;;;;;;;5075193;28;20081;-67
2023/09/26 03:24:39;;;;;;;10.35;4.47;;;;;;;;;;5075111;28;20028;-67
2023/09/26 03:27:05;;;;;;;9.30;4.57;;;;;;;;;;5075117;28;20031;-67
2023/09/26 03:29:32;;;;;;;7.13;3.97;;;;;;;;;;5074677;28;20063;-67
2023/09/26 03:31:58;;;;;;;6.82;4.22;;;;;;;;;;5075087;28;20049;-67
2023/09/26 03:34:24;;;;;;;9.15;4.85;;;;;;;;;;5074186;28;20046;-67
2023/09/26 03:36:50;;;;;;;9.13;4.63;;;;;;;;;;5075096;28;20134;-67
2023/09/26 03:39:16;;;;;;;7.15;4.28;;;;;;;;;;5074688;28;20061;-67
2023/09/26 03:41:43;;;;;;;7.20;4.97;;;;;;;;;;5074953;27;20062;-67
2023/09/26 03:44:09;;;;;;;9.25;5.18;;;;;;;;;;5075420;28;20036;-68
2023/09/26 03:46:35;;;;;;;7.60;4.60;;;;;;;;;;5074987;28;20538;-67
2023/09/26 03:49:02;;;;;;;8.98;4.40;;;;;;;;;;5075215;28;20039;-67
2023/09/26 03:51:28;;;;;;;8.43;4.55;;;;;;;;;;5073862;27;20107;-67
2023/09/26 03:53:54;;;;;;;7.70;4.82;;;;;;;;;;5054160;28;20043;-68
2023/09/26 03:56:20;;;;;;;8.88;5.18;;;;;;;;;;5075004;28;20481;-68
2023/09/26 03:58:46;;;;;;;8.57;4.30;;;;;;;;;;5074327;28;20087;-67
2023/09/26 04:01:14;;;;;;;7.72;4.40;;;;;;;;;;5074694;28;20526;-67
2023/09/26 04:03:41;;;;;;;9.43;4.65;;;;;;;;;;5073896;28;20048;-67
2023/09/26 04:06:07;;;;;;;7.22;4.78;;;;;;;;;;5074357;28;20493;-67
2023/09/26 04:08:33;;;;;;;9.60;5.70;;;;;;;;;;5054024;28;20089;-67
2023/09/26 04:10:59;;;;;;;9.57;5.30;;;;;;;;;;5073232;28;20562;-67
2023/09/26 04:13:26;;;;;;;9.52;5.55;;;;;;;;;;5073900;28;20038;-68
2023/09/26 04:15:52;;;;;;;7.90;4.65;;;;;;;;;;5055550;28;20024;-67
2023/09/26 04:18:18;;;;;;;9.15;5.78;;;;;;;;;;5074810;28;20024;-67
2023/09/26 04:20:45;;;;;;;8.63;5.07;;;;;;;;;;5075036;28;20032;-67
2023/09/26 04:23:11;;;;;;;9.25;5.45;;;;;;;;;;5074774;28;20035;-67
2023/09/26 04:25:37;;;;;;;7.97;4.85;;;;;;;;;;5074281;28;20085;-67
2023/09/26 04:28:04;;;;;;;8.48;5.43;;;;;;;;;;5073876;28;20042;-67
2023/09/26 04:30:30;;;;;;;9.45;5.65;;;;;;;;;;5073535;28;20023;-67
2023/09/26 04:32:56;;;;;;;8.25;5.25;;;;;;;;;;5074496;28;20681;-67
2023/09/26 04:35:22;;;;;;;9.18;5.78;;;;;;;;;;5074928;28;20046;-67
2023/09/26 04:37:48;;;;;;;10.52;6.25;;;;;;;;;;5074229;28;20517;-67
2023/09/26 04:40:16;;;;;;;8.15;5.65;;;;;;;;;;5073279;28;20056;-67
2023/09/26 04:42:43;;;;;;;8.95;6.00;;;;;;;;;;5074878;28;20031;-67
2023/09/26 04:45:09;;;;;;;10.13;5.65;;;;;;;;;;5073119;28;20036;-67
2023/09/26 04:47:38;;;;;;;8.95;6.32;;;;;;;;;;5074080;28;20043;-67
2023/09/26 04:50:05;;;;;;;9.80;7.00;;;;;;;;;;5073838;28;20042;-67
2023/09/26 04:52:31;;;;;;;13.35;6.93;;;;;;;;;;5074071;28;20039;-67
2023/09/26 04:54:57;;;;;;;13.65;7.07;;;;;;;;;;5074727;28;20085;-67
2023/09/26 04:57:23;;;;;;;8.63;6.10;;;;;;;;;;5073648;28;20425;-67
2023/09/26 04:59:49;;;;;;;9.63;6.68;;;;;;;;;;5063315;28;20569;-67
2023/09/26 05:02:16;;;;;;;9.15;6.38;;;;;;;;;;5072352;28;20495;-67
2023/09/26 05:04:42;;;;;;;9.55;7.10;;;;;;;;;;5073378;28;20092;-67
2023/09/26 05:07:09;;;;;;;10.02;6.68;;;;;;;;;;5053702;28;20120;-68
2023/09/26 05:09:36;;;;;;;12.63;7.00;;;;;;;;;;5073507;28;20027;-67
2023/09/26 05:12:02;;;;;;;10.38;6.30;;;;;;;;;;5072707;28;20039;-67
2023/09/26 05:14:28;;;;;;;8.82;6.43;;;;;;;;;;5074215;28;20163;-67
2023/09/26 05:16:54;;;;;;;10.80;6.93;;;;;;;;;;5072712;28;20126;-67
2023/09/26 05:19:21;;;;;;;10.35;5.88;;;;;;;;;;5072603;28;20146;-67
2023/09/26 05:21:47;;;;;;;10.50;7.05;;;;;;;;;;5074079;28;20649;-68
2023/09/26 05:24:13;;;;;;;10.02;6.78;;;;;;;;;;5073148;28;20047;-67
2023/09/26 05:26:39;;;;;;;12.45;7.07;;;;;;;;;;5073183;28;20032;-67
2023/09/26 05:29:05;;;;;;;8.88;6.28;;;;;;;;;;5072812;28;20047;-67
2023/09/26 05:31:31;;;;;;;12.85;6.72;;;;;;;;;;5073200;28;20024;-67
2023/09/26 05:33:58;;;;;;;9.90;6.85;;;;;;;;;;5072820;28;20063;-67
2023/09/26 05:36:24;;;;;;;8.73;6.25;;;;;;;;;;5072759;28;20519;-67
2023/09/26 05:38:50;;;;;;;9.70;6.65;;;;;;;;;;5073403;28;20536;-67
2023/09/26 05:41:16;;;;;;;10.85;6.57;;;;;;;;;;5073448;28;20024;-67
2023/09/26 05:43:42;;;;;;;9.30;7.18;;;;;;;;;;5073627;28;20060;-67
2023/09/26 05:46:08;;;;;;;10.02;6.75;;;;;;;;;;5073286;28;20047;-67
2023/09/26 05:48:34;;;;;;;10.05;6.93;;;;;;;;;;5073111;28;20035;-67
2023/09/26 05:51:02;;;;;;;10.85;6.55;;;;;;;;;;5061234;28;20059;-67
2023/09/26 05:53:28;;;;;;;12.43;6.90;;;;;;;;;;5072673;28;20050;-67
2023/09/26 05:55:55;;;;;;;14.35;7.72;;;;;;;;;;5072315;28;20474;-67
2023/09/26 05:58:21;;;;;;;12.27;7.10;;;;;;;;;;5073159;28;20550;-67
2023/09/26 06:00:47;;;;;;;9.32;6.55;;;;;;;;;;5074049;28;20032;-67
2023/09/26 06:03:14;;;;;;;12.23;6.80;;;;;;;;;;5071823;28;20059;-67
2023/09/26 06:05:40;;;;;;;9.93;7.35;;;;;;;;;;5052137;28;20930;-67
2023/09/26 06:08:06;;;;;;;11.55;7.80;;;;;;;;;;5069969;28;20988;-68
2023/09/26 06:10:33;;;;;;;11.18;7.47;;;;;;;;;;5049711;28;20036;-67
2023/09/26 06:12:59;;;;;;;11.77;6.90;;;;;;;;;;5071081;28;20490;-67
2023/09/26 06:15:25;;;;;;;10.85;7.13;;;;;;;;;;5071589;28;20031;-67
2023/09/26 06:17:57;;;;;;;10.55;6.82;;;;;;;;;;5074444;28;20759;-67
2023/09/26 06:20:23;;;;;;;15.82;7.10;;;;;;;;;;5075894;28;20020;-67
2023/09/26 06:22:49;;;;;;;9.50;6.20;;;;;;;;;;5058163;28;20730;-67
2023/09/26 06:25:16;;;;;;;11.23;7.10;;;;;;;;;;5055659;28;20043;-67
2023/09/26 06:27:42;;;;;;;10.13;6.60;;;;;;;;;;5075123;28;20080;-68
2023/09/26 06:30:11;;;;;;;8.98;6.28;;;;;;;;;;5076303;28;20048;-67
2023/09/26 06:32:37;;;;;;;12.15;7.07;;;;;;;;;;5074930;28;20028;-67
2023/09/26 06:35:03;;;;;;;16.05;7.40;;;;;;;;;;5075696;28;20024;-67
2023/09/26 06:37:29;;;;;;;10.40;6.95;;;;;;;;;;5076143;28;20672;-68
2023/09/26 06:40:00;;;;;;;9.98;6.68;;;;;;;;;;5074874;28;20063;-67
2023/09/26 06:42:26;;;;;;;9.43;6.60;;;;;;;;;;5075905;28;20051;-68
2023/09/26 06:44:52;;;;;;;12.00;6.60;;;;;;;;;;5076044;28;20040;-67
2023/09/26 06:47:18;;;;;;;11.52;6.80;;;;;;;;;;5075456;28;20065;-67
2023/09/26 06:49:46;;;;;;;11.43;7.45;;;;;;;;;;5076227;28;20028;-67
2023/09/26 06:52:12;;;;;;;9.73;6.72;;;;;;;;;;5075313;28;20114;-67
2023/09/26 06:54:38;;;;;;;10.95;7.22;;;;;;;;;;5074190;27;20074;-67
2023/09/26 06:57:04;;;;;;;11.55;6.82;;;;;;;;;;5074841;28;20126;-67
2023/09/26 06:59:30;;;;;;;12.65;7.10;;;;;;;;;;5076346;28;20046;-67
2023/09/26 07:01:56;;;;;;;11.90;7.22;;;;;;;;;;5074274;28;20027;-67
2023/09/26 07:04:22;;;;;;;10.82;7.57;;;;;;;;;;5069079;27;20040;-67
2023/09/26 07:06:48;;;;;;;9.95;6.68;;;;;;;;;;5067907;28;20085;-67
2023/09/26 07:09:15;;;;;;;11.40;7.45;;;;;;;;;;5065879;28;20024;-67
2023/09/26 07:11:41;;;;;;;11.93;6.95;;;;;;;;;;5065603;28;20036;-67
2023/09/26 07:14:07;;;;;;;12.65;7.28;;;;;;;;;;5067818;27;20040;-67
2023/09/26 07:16:33;;;;;;;9.98;6.85;;;;;;;;;;5069117;28;20038;-67
2023/09/26 07:19:00;;;;;;;9.63;6.20;;;;;;;;;;5068615;28;20063;-68
2023/09/26 07:21:26;;;;;;;11.80;7.13;;;;;;;;;;5069812;28;20687;-67
2023/09/26 07:23:52;;;;;;;11.95;7.03;;;;;;;;;;5068148;28;20032;-67
2023/09/26 07:26:20;;;;;;;9.07;6.47;;;;;;;;;;5049512;28;20036;-67
2023/09/26 07:28:48;;;;;;;12.00;7.20;;;;;;;;;;5068612;28;20121;-67
2023/09/26 07:31:16;;;;;;;13.85;7.35;;;;;;;;;;5068014;28;21364;-67
2023/09/26 07:33:43;;;;;;;11.85;7.38;;;;;;;;;;5069164;28;20069;-67
2023/09/26 07:36:10;;;;;;;12.90;7.60;;;;;;;;;;5067706;28;20399;-67
2023/09/26 07:38:36;;;;;;;9.82;6.88;;;;;;;;;;5069238;28;20032;-67
2023/09/26 07:41:03;;;;;;;12.55;7.53;;;;;;;;;;5067899;28;20042;-67
2023/09/26 07:43:29;;;;;;;12.52;7.70;;;;;;;;;;5067816;28;20027;-67
2023/09/26 07:46:04;;;;;;;10.68;7.43;;;;;;;;;;5068431;28;20140;-68
2023/09/26 07:48:30;;;;;;;10.95;7.75;;;;;;;;;;5067094;28;20035;-69
2023/09/26 07:50:56;;;;;;;10.05;6.90;;;;;;;;;;5055422;28;20082;-68
2023/09/26 07:53:22;;;;;;;10.85;7.30;;;;;;;;;;5067618;27;20078;-68
2023/09/26 07:55:48;;;;;;;10.50;7.00;;;;;;;;;;5066780;28;20016;-69
2023/09/26 07:58:15;;;;;;;11.77;7.88;;;;;;;;;;5067062;28;20030;-68
2023/09/26 08:00:41;;;;;;;14.57;7.57;;;;;;;;;;5068211;28;20036;-68
2023/09/26 08:03:07;;;;;;;12.77;8.05;;;;;;;;;;5066563;28;20043;-68
2023/09/26 08:05:33;;;;;;;13.23;7.80;;;;;;;;;;5048242;28;20043;-68
2023/09/26 08:08:04;;;;;;;11.00;7.45;;;;;;;;;;5067085;28;20043;-68
2023/09/26 08:10:30;;;;;;;10.60;7.45;;;;;;;;;;5067177;28;20098;-68
2023/09/26 08:12:56;;;;;;;10.10;7.10;;;;;;;;;;5067365;28;20028;-68
2023/09/26 08:15:22;;;;;;;11.63;7.43;;;;;;;;;;5067037;28;20024;-68
2023/09/26 08:17:48;;;;;;;12.05;7.93;;;;;;;;;;5067914;28;20526;-68
2023/09/26 08:20:16;;;;;;;13.48;7.35;;;;;;;;;;5066763;27;20042;-69
2023/09/26 08:22:43;;;;;;;12.07;7.63;;;;;;;;;;5067204;28;20078;-68
2023/09/26 08:25:09;;;;;;;12.07;7.60;;;;;;;;;;5067811;28;20108;-68
2023/09/26 08:27:35;;;;;;;11.20;7.40;;;;;;;;;;5066034;28;20066;-68
2023/09/26 08:30:02;;;;;;;12.43;7.82;;;;;;;;;;5067432;28;20032;-68
2023/09/26 08:32:31;;;;;;;10.15;7.25;;;;;;;;;;5067008;27;20027;-68
2023/09/26 08:34:57;;;;;;;11.70;7.43;;;;;;;;;;5068762;28;20039;-69
2023/09/26 08:37:23;;;;;;;14.43;8.30;;;;;;;;;;5067344;28;20089;-68
2023/09/26 08:39:51;;;;;;;11.02;8.00;;;;;;;;;;5067419;28;20051;-68
2023/09/26 08:42:26;;;;;;;10.32;7.55;;;;;;;;;;5066395;28;20035;-68
2023/09/26 08:44:52;;;;;;;11.90;7.72;;;;;;;;;;5067624;28;20035;-68
2023/09/26 08:47:20;;;;;;;11.73;7.88;;;;;;;;;;5066829;28;20043;-68
2023/09/26 08:49:47;;;;;;;11.80;7.63;;;;;;;;;;5067114;28;20081;-68
2023/09/26 08:52:13;;;;;;;12.55;7.65;;;;;;;;;;5046697;28;22116;-69
2023/09/26 08:54:39;;;;;;;11.02;7.45;;;;;;;;;;5066592;28;20043;-69
2023/09/26 08:57:05;;;;;;;10.52;7.03;;;;;;;;;;5066813;28;20035;-69
2023/09/26 08:59:31;;;;;;;11.57;8.00;;;;;;;;;;5065618;28;20036;-69
2023/09/26 09:01:58;;;;;;;10.43;7.30;;;;;;;;;;5065740;28;20034;-68
2023/09/26 09:04:24;;;;;;;13.02;7.53;;;;;;;;;;5066707;28;20126;-69
2023/09/26 09:07:02;;;;;;;14.15;7.70;;;;;;;;;;5066205;28;20047;-68
2023/09/26 09:09:28;;;;;;;13.93;7.75;;;;;;;;;;5054988;28;20668;-68
2023/09/26 09:11:54;;;;;;;13.02;7.43;;;;;;;;;;5066731;28;20027;-68
2023/09/26 09:14:34;;;;;;;10.80;7.43;;;;;;;;;;5074986;28;20887;-69
2023/09/26 09:17:00;;;;;;;9.60;6.80;;;;;;;;;;5073823;28;20399;-69
2023/09/26 09:19:46;;;;;;;9.57;7.13;;;;;;;;;;5074184;28;20031;-69
2023/09/26 09:22:17;;;;;;;12.70;7.35;;;;;;;;;;5074221;28;20021;-69
2023/09/26 09:24:43;;;;;;;16.63;7.13;;;;;;;;;;5074297;28;20044;-69
2023/09/26 09:27:10;;;;;;;10.90;7.30;;;;;;;;;;5074268;28;20034;-69
2023/09/26 09:29:36;;;;;;;11.82;6.82;;;;;;;;;;5074135;28;20062;-69
2023/09/26 09:32:02;;;;;;;12.82;6.30;;;;;;;;;;5073809;28;20055;-68
2023/09/26 09:34:28;;;;;;;11.00;6.63;;;;;;;;;;5074694;28;20028;-69
2023/09/26 09:36:57;;;;;;;11.27;6.45;;;;;;;;;;5073380;28;20118;-69
2023/09/26 09:39:23;;;;;;;9.52;6.05;;;;;;;;;;5074025;28;20054;-69
2023/09/26 09:41:49;;;;;;;12.57;6.80;;;;;;;;;;5073992;28;21011;-69
2023/09/26 09:44:15;;;;;;;13.30;6.32;;;;;;;;;;5073342;28;20040;-69
2023/09/26 09:46:43;;;;;;;10.60;5.95;;;;;;;;;;5073027;28;20044;-69
2023/09/26 09:49:10;;;;;;;12.60;6.60;;;;;;;;;;5073791;28;20035;-69
2023/09/26 09:51:42;;;;;;;10.40;6.40;;;;;;;;;;5076756;27;20043;-69
2023/09/26 09:54:12;;;;;;;14.85;6.28;;;;;;;;;;5077215;28;20119;-69
2023/09/26 09:56:39;;;;;;;11.88;6.60;;;;;;;;;;5077434;28;20039;-69
2023/09/26 09:59:12;;;;;;;10.60;5.88;;;;;;;;;;5075681;28;20134;-69
2023/09/26 10:01:43;;;;;;;10.98;6.30;;;;;;;;;;5076254;28;20549;-69
2023/09/26 10:04:09;;;;;;;9.70;5.85;;;;;;;;;;5076840;28;20043;-69
2023/09/26 10:06:36;;;;;;;10.65;5.57;;;;;;;;;;5075760;28;20031;-69
2023/09/26 10:09:03;;;;;;;12.52;5.75;;;;;;;;;;5076054;28;21346;-69
2023/09/26 10:11:30;;;;;;;11.20;6.20;;;;;;;;;;5077453;28;20752;-69
2023/09/26 10:13:58;;;;;;;10.90;6.22;;;;;;;;;;5077617;28;21477;-69
2023/09/26 10:16:25;;;;;;;12.02;5.50;;;;;;;;;;5077965;28;20156;-69
2023/09/26 10:18:51;;;;;;;9.75;5.32;;;;;;;;;;5076687;28;21807;-69
2023/09/26 10:21:28;;;;;;;11.82;6.68;;;;;;;;;;5077664;28;20035;-69
2023/09/26 10:24:06;;;;;;;10.45;5.82;;;;;;;;;;5077063;28;20674;-70
2023/09/26 10:26:33;;;;;;;14.88;5.78;;;;;;;;;;5078065;28;20051;-69
2023/09/26 10:29:05;;;;;;;11.35;5.45;;;;;;;;;;5076493;28;20040;-69
2023/09/26 10:31:33;;;;;;;9.00;5.13;;;;;;;;;;5077567;28;20038;-69
2023/09/26 10:33:59;;;;;;;9.10;5.32;;;;;;;;;;5060411;28;20036;-69
2023/09/26 10:36:25;;;;;;;10.98;5.55;;;;;;;;;;5076362;28;20066;-69
2023/09/26 10:39:02;;;;;;;13.20;5.35;;;;;;;;;;5057141;28;20054;-69
2023/09/26 10:41:30;;;;;;;9.32;4.88;;;;;;;;;;5076565;28;20032;-69
2023/09/26 10:43:56;;;;;;;10.95;4.93;;;;;;;;;;5076587;28;20035;-69
2023/09/26 10:46:22;;;;;;;8.77;4.10;;;;;;;;;;5058480;28;20055;-69
2023/09/26 10:48:48;;;;;;;9.45;4.47;;;;;;;;;;5059551;28;20036;-70
2023/09/26 10:51:18;;;;;;;11.00;4.28;;;;;;;;;;5076485;28;20636;-68
2023/09/26 10:53:45;;;;;;;7.32;4.15;;;;;;;;;;5075801;28;21004;-69
2023/09/26 10:56:11;;;;;;;11.70;4.90;;;;;;;;;;5076833;28;20036;-69
2023/09/26 10:58:37;;;;;;;8.52;3.88;;;;;;;;;;5076417;28;20052;-69
2023/09/26 11:01:03;;;;;;;8.45;4.90;;;;;;;;;;5076535;28;20320;-69
2023/09/26 11:03:30;;;;;;;8.30;3.88;;;;;;;;;;5075457;28;20051;-69
2023/09/26 11:05:57;;;;;;;7.63;3.67;;;;;;;;;;5076988;28;20035;-69
2023/09/26 11:08:23;;;;;;;10.35;4.55;;;;;;;;;;5057559;28;20035;-69
2023/09/26 11:10:49;;;;;;;10.57;4.28;;;;;;;;;;5076503;28;20094;-69
2023/09/26 11:13:16;;;;;;;9.90;3.90;;;;;;;;;;5076342;28;20051;-70
2023/09/26 11:15:45;;;;;;;10.35;4.25;;;;;;;;;;5076579;28;20060;-69
2023/09/26 11:18:15;;;;;;;8.90;3.95;;;;;;;;;;5075338;28;20158;-69
2023/09/26 11:20:41;;;;;;;9.80;3.53;;;;;;;;;;5075892;28;20036;-69
2023/09/26 11:23:07;;;;;;;7.13;3.85;;;;;;;;;;5076167;28;20485;-69
2023/09/26 11:25:33;;;;;;;9.43;3.55;;;;;;;;;;5076276;28;20145;-69
2023/09/26 11:28:00;;;;;;;7.38;3.35;;;;;;;;;;5075606;28;20032;-69
2023/09/26 11:30:26;;;;;;;8.90;4.00;;;;;;;;;;5075990;27;20040;-69
2023/09/26 11:32:55;;;;;;;7.90;3.88;;;;;;;;;;5075369;27;20706;-69
2023/09/26 11:35:22;;;;;;;9.75;3.63;;;;;;;;;;5076338;28;20063;-69
2023/09/26 11:37:52;;;;;;;10.60;3.10;;;;;;;;;;5076116;28;20034;-69
2023/09/26 11:40:25;;;;;;;7.03;3.92;;;;;;;;;;5074831;27;20027;-69
2023/09/26 11:42:55;;;;;;;7.00;3.40;;;;;;;;;;5076100;28;20051;-69
2023/09/26 11:45:30;;;;;;;9.82;3.45;;;;;;;;;;5075842;28;20695;-70
2023/09/26 11:47:56;;;;;;;7.22;3.42;;;;;;;;;;5075735;28;20032;-69
2023/09/26 11:50:23;;;;;;;7.90;3.65;;;;;;;;;;5074630;28;20031;-69
2023/09/26 11:52:50;;;;;;;7.30;3.83;;;;;;;;;;5075193;28;20047;-69
2023/09/26 11:55:17;;;;;;;8.60;3.72;;;;;;;;;;5075098;28;20032;-69
2023/09/26 11:57:43;;;;;;;10.02;3.55;;;;;;;;;;5075307;28;20471;-69
2023/09/26 12:00:15;;;;;;;7.32;3.80;;;;;;;;;;5075522;28;20141;-69
2023/09/26 12:02:43;;;;;;;7.68;4.03;;;;;;;;;;5075031;28;20044;-69
2023/09/26 12:05:10;;;;;;;7.90;4.03;;;;;;;;;;5075068;28;20028;-69
2023/09/26 12:07:37;;;;;;;8.07;3.83;;;;;;;;;;5075177;28;20910;-69
2023/09/26 12:10:04;;;;;;;6.63;3.38;;;;;;;;;;5075697;28;20796;-69
2023/09/26 12:12:30;;;;;;;6.25;3.22;;;;;;;;;;5074358;28;20143;-68
2023/09/26 12:15:15;;;;;;;6.07;2.97;;;;;;;;;;5054508;28;20040;-69
2023/09/26 12:17:41;;;;;;;8.35;3.20;;;;;;;;;;5074315;28;20755;-69
2023/09/26 12:20:08;;;;;;;7.13;3.10;;;;;;;;;;5074989;28;20063;-69
2023/09/26 12:22:35;;;;;;;6.05;3.17;;;;;;;;;;5074219;28;20024;-69
2023/09/26 12:25:01;;;;;;;7.03;3.42;;;;;;;;;;5075426;28;20982;-69
2023/09/26 12:27:27;;;;;;;8.95;3.42;;;;;;;;;;5074960;28;20047;-69
2023/09/26 12:29:53;;;;;;;7.40;3.75;;;;;;;;;;5074584;28;20032;-69
2023/09/26 12:32:19;;;;;;;6.28;3.03;;;;;;;;;;5076124;28;20918;-69
2023/09/26 12:34:45;;;;;;;5.78;3.50;;;;;;;;;;5074849;28;20046;-69
2023/09/26 12:37:14;;;;;;;9.02;3.20;;;;;;;;;;5075241;27;20233;-69
2023/09/26 12:39:40;;;;;;;6.35;3.60;;;;;;;;;;5074674;28;20058;-69
2023/09/26 12:42:07;;;;;;;7.65;3.80;;;;;;;;;;5075696;28;20042;-69
2023/09/26 12:44:36;;;;;;;9.15;3.92;;;;;;;;;;5073882;28;20039;-69
2023/09/26 12:47:02;;;;;;;8.05;4.03;;;;;;;;;;5074483;28;20027;-69
2023/09/26 12:49:28;;;;;;;7.93;4.28;;;;;;;;;;5074665;28;20028;-69
2023/09/26 12:51:54;;;;;;;7.32;3.67;;;;;;;;;;5074181;28;20028;-69
2023/09/26 12:54:22;;;;;;;7.45;4.10;;;;;;;;;;5074405;28;20032;-69
2023/09/26 12:56:48;;;;;;;7.05;4.13;;;;;;;;;;5072133;28;20017;-68
2023/09/26 12:59:14;;;;;;;8.80;4.60;;;;;;;;;;5074115;28;20020;-69
2023/09/26 13:01:40;;;;;;;7.90;3.50;;;;;;;;;;5073545;28;20027;-69
2023/09/26 13:04:09;;;;;;;6.82;3.75;;;;;;;;;;5072503;28;20073;-69
2023/09/26 13:06:35;;;;;;;6.85;3.63;;;;;;;;;;5072601;28;20513;-69
2023/09/26 13:09:01;;;;;;;8.85;3.97;;;;;;;;;;5073571;28;20146;-69
2023/09/26 13:11:27;;;;;;;7.47;3.83;;;;;;;;;;5055884;28;20035;-69
2023/09/26 13:13:53;;;;;;;7.07;3.20;;;;;;;;;;5073321;28;20040;-69
2023/09/26 13:16:20;;;;;;;6.72;3.47;;;;;;;;;;5055864;28;20032;-69
2023/09/26 13:18:50;;;;;;;6.00;3.17;;;;;;;;;;5073548;28;20123;-70
2023/09/26 13:21:17;;;;;;;10.02;4.03;;;;;;;;;;5074431;28;20639;-69
2023/09/26 13:23:43;;;;;;;9.18;3.97;;;;;;;;;;5074270;28;20608;-69
2023/09/26 13:26:09;;;;;;;10.20;3.75;;;;;;;;;;5077418;27;20613;-69
2023/09/26 13:28:35;;;;;;;7.03;4.07;;;;;;;;;;5079087;28;20047;-69
2023/09/26 13:31:02;;;;;;;7.60;4.00;;;;;;;;;;5078261;27;20035;-69
2023/09/26 13:33:28;;;;;;;6.40;3.40;;;;;;;;;;5078088;28;20150;-71
2023/09/26 13:35:54;;;;;;;7.60;3.72;;;;;;;;;;5077722;28;20107;-69
2023/09/26 13:38:20;;;;;;;10.40;5.50;;;;;;;;;;5076832;27;21409;-68
2023/09/26 13:40:48;;;;;;;7.40;3.92;;;;;;;;;;5077312;28;20042;-69
2023/09/26 13:43:14;;;;;;;7.50;3.75;;;;;;;;;;5077914;27;20032;-69
2023/09/26 13:45:40;;;;;;;7.30;3.92;;;;;;;;;;5078011;28;20065;-69
2023/09/26 13:48:06;;;;;;;7.50;3.83;;;;;;;;;;5077954;27;20040;-69
2023/09/26 13:50:33;;;;;;;8.13;3.60;;;;;;;;;;5077753;28;20089;-69
2023/09/26 13:52:59;;;;;;;6.78;3.40;;;;;;;;;;5077476;27;21800;-69
2023/09/26 13:55:25;;;;;;;8.75;4.13;;;;;;;;;;5078032;28;20032;-69
2023/09/26 13:57:51;;;;;;;8.15;4.35;;;;;;;;;;5077891;28;20097;-69
2023/09/26 14:00:17;;;;;;;8.30;4.30;;;;;;;;;;5077775;28;20036;-69
2023/09/26 14:02:43;;;;;;;8.60;4.03;;;;;;;;;;5077599;28;20050;-69
2023/09/26 14:05:10;;;;;;;8.13;4.13;;;;;;;;;;5078518;27;20089;-69
2023/09/26 14:07:36;;;;;;;7.80;4.50;;;;;;;;;;5077772;28;20024;-69
2023/09/26 14:10:02;;;;;;;9.50;4.30;;;;;;;;;;5077277;28;20042;-69
2023/09/26 14:12:28;;;;;;;10.95;4.38;;;;;;;;;;5075898;28;20122;-69
2023/09/26 14:14:54;;;;;;;8.13;4.47;;;;;;;;;;5077269;28;20062;-69
2023/09/26 14:17:20;;;;;;;7.80;4.13;;;;;;;;;;5076184;28;20158;-69
2023/09/26 14:19:46;;;;;;;7.35;4.32;;;;;;;;;;5077772;28;20059;-69
2023/09/26 14:22:12;;;;;;;9.73;4.65;;;;;;;;;;5057875;28;20603;-69
2023/09/26 14:24:38;;;;;;;7.03;4.50;;;;;;;;;;5076832;28;20051;-69
2023/09/26 14:27:05;;;;;;;8.10;4.50;;;;;;;;;;5078554;28;20031;-69
2023/09/26 14:29:33;;;;;;;8.75;4.88;;;;;;;;;;5076952;28;20061;-69
2023/09/26 14:31:59;;;;;;;10.15;5.25;;;;;;;;;;5078260;28;20032;-69
2023/09/26 14:34:25;;;;;;;7.93;4.50;;;;;;;;;;5078055;28;20344;-69
2023/09/26 14:36:51;;;;;;;7.78;4.57;;;;;;;;;;5077207;27;20032;-69